CLMO2: North Canadian River

                                SHEF ID:       CLMO2     North Canadian River near Calume
STATION TYPE:
Regulating: Stage = 12.00, Flow = 1420

STAGE STAGE(2) RIV-FLOW WTR-TEMP DIS-OXY PH CONDUCT BAT-LOAD
ft ft cfs F mg/l su umho/cm volt
Ccp-Rev Ccp-Rev Ccp-Rev Ccp-Rev Ccp-Rev Ccp-Rev Ccp-Rev Ccp-Rev
(America/Chicago)
09/01 00:00 2.77 ---- 0 75.72 0.94 7.51 1326 12.44
09/01 01:00 2.78 ---- 0 75.04 0.79 7.51 1322 12.44
09/01 02:00 2.78 ---- 0 74.32 0.84 7.46 1311 12.37
09/01 03:00 2.79 ---- 0 73.80 0.69 7.44 1298 12.42
09/01 04:00 2.80 ---- 0 73.72 0.62 7.46 1285 12.36
09/01 05:00 2.80 ---- 0 73.02 0.54 7.44 1284 12.44
09/01 06:00 2.81 ---- 0 72.73 0.49 7.43 1277 12.36
09/01 07:00 2.82 ---- 0 72.61 0.45 7.44 1278 12.40
09/01 08:00 2.82 ---- 0 72.68 0.68 7.45 1279 12.34
09/01 09:00 2.82 ---- 0 75.74 2.60 7.55 1268 12.46
09/01 10:00 2.81 ---- 0 79.74 6.79 7.86 1276 12.40
09/01 11:00 2.81 ---- 0 83.64 9.00 7.89 1279 12.52
09/01 12:00 2.80 ---- 0 85.39 9.11 7.93 1274 12.51
09/01 13:00 2.79 ---- 0 87.17 10.11 8.05 1270 12.67
09/01 14:00 2.78 ---- 0 87.49 11.28 8.16 1270 12.90
09/01 15:00 2.77 ---- 0 84.33 10.33 8.19 1271 12.99
09/01 16:00 2.77 ---- 0 82.08 8.92 8.25 1278 12.84
09/01 17:00 2.76 ---- 0 81.77 7.53 8.17 1280 12.73
09/01 18:00 2.76 ---- 0 83.30 9.41 8.32 1282 12.65
09/01 19:00 2.76 ---- 0 81.43 8.22 8.26 1294 12.64
09/01 20:00 2.76 ---- 0 80.56 5.01 8.04 1305 12.53
09/01 21:00 2.77 ---- 0 79.52 2.85 7.84 1326 12.58
09/01 22:00 2.77 ---- 0 78.64 1.73 7.65 1334 12.53
09/01 23:00 2.77 ---- 0 77.68 1.16 7.57 1336 12.53
Data processed at Wed 02Sep2026 04:25 GMT

NOTICE: If you are parsing this page

Please convert to using our Data API. Starting early 2026 we will be migrating to: https://water.usace.army.mil with modern pages rendered in JavaScript. When this migration completes you will no longer be able to scrape this page! CWMSDataAPI (CDA)

Timeseries IDs (TSIDs)

TSIDs used from left to right in the data table
CALU.Stage.Inst.1Hour.0.Ccp-Rev
CALU.Stage-Alt.Inst.1Hour.0.Ccp-Rev
CALU.Flow.Inst.1Hour.0.Ccp-Rev
CALU.Temp-Water.Inst.1Hour.0.Ccp-Rev
CALU.Conc-DO.Inst.1Hour.0.Ccp-Rev
CALU.pH.Inst.1Hour.0.Ccp-Rev
CALU.Cond-Water.Inst.1Hour.0.Ccp-Rev
CALU.Volt-Battery Load.Inst.1Hour.0.Ccp-Rev

                            

All information presented herein is the property of the government of the United States of America and may be revised or deleted at any time without prior notice. Dissemination of this information without the expressed written consent of the Public Affairs Office, Tulsa District U.S. Army Corps of Engineers is strictly prohibited. These data are gathered electronically and, as presented, have NOT undergone any form of quality control. These data are NOT guaranteed to be valid or correct.